createdAt,value
2019-03-25T00:00:32.190Z,101204.83
2019-03-25T00:03:00.699Z,101187.18
2019-03-25T00:05:29.181Z,101181.47
2019-03-25T00:07:57.380Z,101170.22
2019-03-25T00:10:25.634Z,101160.34
2019-03-25T00:12:54.107Z,101145.39
2019-03-25T00:15:22.334Z,101153.05
2019-03-25T00:17:50.557Z,101139.58
2019-03-25T00:20:18.589Z,101133.41
2019-03-25T00:22:47.010Z,101123.15
2019-03-25T00:25:15.500Z,101126.70
2019-03-25T00:27:43.969Z,101103.23
2019-03-25T00:30:13.234Z,101093.48
2019-03-25T00:32:41.696Z,101091.88
2019-03-25T00:35:09.938Z,101081.37
2019-03-25T00:37:38.446Z,101082.36
2019-03-25T00:40:07.170Z,101081.25
2019-03-25T00:42:36.420Z,101070.50
2019-03-25T00:45:06.845Z,101063.47
2019-03-25T00:47:35.405Z,101053.70
2019-03-25T00:50:05.434Z,101051.73
2019-03-25T00:52:33.436Z,101045.31
2019-03-25T00:55:01.881Z,101027.41
2019-03-25T00:57:31.038Z,101016.41
2019-03-25T00:59:59.242Z,101003.05
2019-03-25T01:02:28.594Z,101006.75
2019-03-25T01:04:56.833Z,100988.47
2019-03-25T01:07:25.299Z,100978.95
2019-03-25T01:09:54.870Z,100969.84
2019-03-25T01:12:23.288Z,100962.19
2019-03-25T01:14:51.791Z,100968.58
2019-03-25T01:17:20.248Z,100978.22
2019-03-25T01:19:48.743Z,101017.88
2019-03-25T01:22:17.228Z,101030.72
2019-03-25T01:24:45.715Z,101059.95
2019-03-25T01:27:15.535Z,101054.32
2019-03-25T01:29:43.816Z,101053.00
2019-03-25T01:32:12.167Z,101040.61
2019-03-25T01:34:42.019Z,101034.77
2019-03-25T01:37:10.213Z,101035.38
2019-03-25T01:39:38.647Z,101025.63
2019-03-25T01:42:07.111Z,101017.63
2019-03-25T01:44:35.625Z,101023.30
2019-03-25T01:47:04.070Z,101030.49
2019-03-25T01:49:32.265Z,101035.14
2019-03-25T01:52:00.532Z,101021.81
2019-03-25T01:54:29.013Z,101010.72
2019-03-25T01:56:57.501Z,101008.78
2019-03-25T01:59:26.018Z,101006.08
2019-03-25T02:01:54.462Z,101005.09
2019-03-25T02:04:22.937Z,101005.58
2019-03-25T02:06:52.801Z,101003.36
2019-03-25T02:09:21.252Z,101007.80
2019-03-25T02:11:50.210Z,101007.02
2019-03-25T02:14:19.778Z,101010.72
2019-03-25T02:16:49.466Z,101012.20
2019-03-25T02:19:19.180Z,101011.70
2019-03-25T02:21:47.445Z,101011.70
2019-03-25T02:24:15.905Z,101006.45
2019-03-25T02:26:46.053Z,101012.61
2019-03-25T02:29:14.400Z,100999.42
2019-03-25T02:31:42.899Z,101002.13
2019-03-25T02:34:11.363Z,101004.84
2019-03-25T02:36:40.576Z,101013.36
2019-03-25T02:39:08.847Z,101011.38
2019-03-25T02:41:38.053Z,101006.81
2019-03-25T02:44:06.598Z,101012.24
2019-03-25T02:46:35.553Z,100998.39
2019-03-25T02:49:03.787Z,101003.73
2019-03-25T02:51:32.295Z,100992.14
2019-03-25T02:54:00.756Z,100998.02
2019-03-25T02:56:29.235Z,100980.50
2019-03-25T02:58:57.744Z,100978.23
2019-03-25T03:01:26.197Z,100980.39
2019-03-25T03:03:54.698Z,100984.28
2019-03-25T03:06:23.174Z,100993.38
2019-03-25T03:08:51.643Z,100987.91
2019-03-25T03:11:20.134Z,100989.94
2019-03-25T03:13:48.603Z,100978.70
2019-03-25T03:16:17.720Z,100973.16
2019-03-25T03:18:46.089Z,100968.42
2019-03-25T03:21:14.571Z,100974.56
2019-03-25T03:23:43.721Z,100965.95
2019-03-25T03:26:13.052Z,100963.35
2019-03-25T03:28:41.821Z,100962.39
2019-03-25T03:31:10.046Z,100962.88
2019-03-25T03:33:38.544Z,100966.45
2019-03-25T03:36:06.997Z,100962.56
2019-03-25T03:38:35.479Z,100964.78
2019-03-25T03:41:03.977Z,100966.51
2019-03-25T03:43:32.150Z,100967.62
2019-03-25T03:46:00.414Z,100966.04
2019-03-25T03:48:28.901Z,100960.99
2019-03-25T03:50:57.164Z,100948.41
2019-03-25T03:53:25.615Z,100955.78
2019-03-25T03:55:53.824Z,100947.66
2019-03-25T03:58:24.329Z,100939.16
2019-03-25T04:00:52.828Z,100944.45
2019-03-25T04:03:21.297Z,100941.00
2019-03-25T04:05:49.794Z,100946.05
2019-03-25T04:08:18.254Z,100953.20
2019-03-25T04:10:46.476Z,100943.05
2019-03-25T04:13:14.712Z,100941.44
2019-03-25T04:15:44.562Z,100939.08
2019-03-25T04:18:12.788Z,100944.12
2019-03-25T04:20:41.429Z,100942.66
2019-03-25T04:23:09.670Z,100948.70
2019-03-25T04:25:40.117Z,100944.69
2019-03-25T04:28:08.694Z,100944.58
2019-03-25T04:30:37.156Z,100940.88
2019-03-25T04:33:05.689Z,100940.88
2019-03-25T04:35:34.119Z,100944.08
2019-03-25T04:38:02.618Z,100946.73
2019-03-25T04:40:31.085Z,100943.59
2019-03-25T04:42:59.586Z,100938.92
2019-03-25T04:45:28.066Z,100939.66
2019-03-25T04:47:56.533Z,100934.85
2019-03-25T04:50:25.020Z,100934.97
2019-03-25T04:52:53.478Z,100931.02
2019-03-25T04:55:21.981Z,100932.75
2019-03-25T04:57:50.453Z,100928.94
2019-03-25T05:00:22.205Z,100931.60
2019-03-25T05:02:50.485Z,100927.77
2019-03-25T05:05:18.990Z,100935.39
2019-03-25T05:07:47.448Z,100937.12
2019-03-25T05:10:15.944Z,100936.52
2019-03-25T05:12:45.778Z,100938.84
2019-03-25T05:15:15.613Z,100935.41
2019-03-25T05:17:43.933Z,100930.65
2019-03-25T05:20:13.790Z,100934.85
2019-03-25T05:22:41.994Z,100932.03
2019-03-25T05:25:10.419Z,100930.84
2019-03-25T05:27:38.889Z,100935.73
2019-03-25T05:30:07.655Z,100935.34
2019-03-25T05:32:35.854Z,100933.73
2019-03-25T05:35:06.001Z,100932.00
2019-03-25T05:37:34.349Z,100930.65
2019-03-25T05:40:03.008Z,100936.16
2019-03-25T05:42:31.219Z,100926.79
2019-03-25T05:44:59.419Z,100928.63
2019-03-25T05:47:27.641Z,100928.44
2019-03-25T05:49:55.841Z,100933.24
2019-03-25T05:52:24.041Z,100941.63
2019-03-25T05:54:52.256Z,100939.78
2019-03-25T05:57:21.636Z,100938.17
2019-03-25T05:59:49.855Z,100944.69
2019-03-25T06:02:18.048Z,100950.37
2019-03-25T06:04:46.261Z,100951.48
2019-03-25T06:07:14.469Z,100952.61
2019-03-25T06:09:42.683Z,100954.22
2019-03-25T06:12:10.888Z,100962.27
2019-03-25T06:14:39.574Z,100962.77
2019-03-25T06:17:07.777Z,100955.52
2019-03-25T06:19:35.995Z,100958.16
2019-03-25T06:22:04.198Z,100956.60
2019-03-25T06:24:32.391Z,100952.55
2019-03-25T06:27:00.600Z,100956.86
2019-03-25T06:29:28.803Z,100962.70
2019-03-25T06:31:58.222Z,100962.70
2019-03-25T06:34:26.412Z,100958.67
2019-03-25T06:36:54.619Z,100960.32
2019-03-25T06:39:22.831Z,100969.48
2019-03-25T06:41:51.026Z,100968.16
2019-03-25T06:44:19.251Z,100973.88
2019-03-25T06:46:47.520Z,100980.07
2019-03-25T06:49:15.728Z,100984.53
2019-03-25T06:51:45.209Z,100979.09
2019-03-25T06:54:13.510Z,100987.88
2019-03-25T06:56:41.726Z,100985.87
2019-03-25T06:59:09.925Z,100981.56
2019-03-25T07:01:38.145Z,100981.56
2019-03-25T07:04:06.350Z,100986.39
2019-03-25T07:06:34.551Z,100991.33
2019-03-25T07:09:03.114Z,100984.64
2019-03-25T07:11:31.310Z,100986.86
2019-03-25T07:13:59.594Z,100990.94
2019-03-25T07:16:29.016Z,100983.13
2019-03-25T07:18:57.232Z,100992.83
2019-03-25T07:21:25.428Z,100993.43
2019-03-25T07:23:53.869Z,100989.34
2019-03-25T07:26:22.308Z,100996.64
2019-03-25T07:28:50.507Z,100996.18
2019-03-25T07:31:18.724Z,101004.38
2019-03-25T07:33:48.202Z,101004.38
2019-03-25T07:36:16.402Z,101016.37
2019-03-25T07:38:44.618Z,101025.30
2019-03-25T07:41:12.900Z,101020.61
2019-03-25T07:43:41.112Z,101025.88
2019-03-25T07:46:09.314Z,101032.19
2019-03-25T07:48:37.545Z,101037.37
2019-03-25T07:51:05.741Z,101044.16
2019-03-25T07:53:33.958Z,101052.55
2019-03-25T07:56:02.169Z,101062.06
2019-03-25T07:58:32.012Z,101061.20
2019-03-25T08:01:00.200Z,101064.94
2019-03-25T08:03:28.402Z,101066.53
2019-03-25T08:05:57.098Z,101074.83
2019-03-25T08:08:25.294Z,101080.64
2019-03-25T08:10:53.511Z,101085.32
2019-03-25T08:13:21.869Z,101086.45
2019-03-25T08:15:50.088Z,101085.60
2019-03-25T08:18:18.286Z,101094.50
2019-03-25T08:20:46.964Z,101091.03
2019-03-25T08:23:15.160Z,101094.12
2019-03-25T08:25:43.375Z,101096.72
2019-03-25T08:28:11.576Z,101096.72
2019-03-25T08:30:40.546Z,101106.61
2019-03-25T08:33:08.740Z,101097.22
2019-03-25T08:35:36.947Z,101104.64
2019-03-25T08:38:05.143Z,101104.64
2019-03-25T08:40:33.357Z,101120.58
2019-03-25T08:43:01.551Z,101118.47
2019-03-25T08:45:31.048Z,101120.08
2019-03-25T08:47:59.244Z,101119.07
2019-03-25T08:50:27.450Z,101124.87
2019-03-25T08:52:55.647Z,101124.87
2019-03-25T08:55:23.848Z,101127.20
2019-03-25T08:57:53.193Z,101141.91
2019-03-25T09:00:21.391Z,101133.14
2019-03-25T09:02:49.616Z,101134.02
2019-03-25T09:05:17.812Z,101137.83
2019-03-25T09:07:46.014Z,101144.01
2019-03-25T09:10:14.228Z,101146.84
2019-03-25T09:12:42.424Z,101143.31
2019-03-25T09:15:10.720Z,101144.81
2019-03-25T09:17:38.945Z,101146.40
2019-03-25T09:20:08.005Z,101146.55
2019-03-25T09:22:36.204Z,101147.22
2019-03-25T09:25:08.396Z,101151.25
2019-03-25T09:27:36.617Z,101155.30
2019-03-25T09:30:07.137Z,101159.16
2019-03-25T09:32:35.348Z,101160.07
2019-03-25T09:35:04.221Z,101162.05
2019-03-25T09:37:32.436Z,101174.52
2019-03-25T09:40:00.629Z,101176.75
2019-03-25T09:42:28.840Z,101180.06
2019-03-25T09:44:57.036Z,101179.13
2019-03-25T09:47:25.256Z,101180.13
2019-03-25T09:49:53.455Z,101182.50
2019-03-25T09:52:21.658Z,101183.14
2019-03-25T09:54:50.111Z,101183.14
2019-03-25T09:57:19.574Z,101194.50
2019-03-25T09:59:48.308Z,101192.23
2019-03-25T10:02:18.153Z,101196.41
2019-03-25T10:04:46.342Z,101193.61
2019-03-25T10:07:19.039Z,101199.92
2019-03-25T10:09:47.693Z,101210.55
2019-03-25T10:12:15.904Z,101210.55
2019-03-25T10:14:44.169Z,101203.72
2019-03-25T10:17:12.372Z,101213.04
2019-03-25T10:19:40.567Z,101215.36
2019-03-25T10:22:08.774Z,101217.95
2019-03-25T10:24:36.968Z,101201.42
2019-03-25T10:27:05.170Z,101208.47
2019-03-25T10:29:33.369Z,101193.77
2019-03-25T10:32:01.574Z,101193.77
2019-03-25T10:34:29.771Z,101221.53
2019-03-25T10:36:57.982Z,101229.33
2019-03-25T10:39:26.648Z,101230.89
2019-03-25T10:41:54.866Z,101230.89
2019-03-25T10:44:23.068Z,101236.43
2019-03-25T10:46:51.267Z,101238.76
2019-03-25T10:49:20.653Z,101249.42
2019-03-25T10:51:49.322Z,101264.77
2019-03-25T10:54:17.638Z,101289.80
2019-03-25T10:56:49.251Z,101283.07
2019-03-25T10:59:17.195Z,101288.17
2019-03-25T11:01:45.354Z,101291.37
2019-03-25T11:04:14.015Z,101283.06
2019-03-25T11:06:42.219Z,101283.06
2019-03-25T11:09:11.173Z,101285.64
2019-03-25T11:11:39.370Z,101283.08
2019-03-25T11:14:07.586Z,101285.07
2019-03-25T11:16:35.779Z,101281.31
2019-03-25T11:19:03.983Z,101278.86
2019-03-25T11:21:32.268Z,101286.39
2019-03-25T11:24:00.469Z,101280.70
2019-03-25T11:26:28.684Z,101282.27
2019-03-25T11:29:04.581Z,101279.50
2019-03-25T11:31:29.355Z,101279.50
2019-03-25T11:33:57.555Z,101286.78
2019-03-25T11:36:25.773Z,101331.56
2019-03-25T11:38:53.982Z,101331.56
2019-03-25T11:41:22.198Z,101336.00
2019-03-25T11:43:50.400Z,101332.81
2019-03-25T11:46:18.595Z,101344.11
2019-03-25T11:48:46.805Z,101344.11
2019-03-25T11:51:15.003Z,101335.44
2019-03-25T11:53:44.113Z,101338.50
2019-03-25T11:56:12.312Z,101336.38
2019-03-25T11:58:40.527Z,101346.98
2019-03-25T12:01:09.737Z,101344.08
2019-03-25T12:03:37.933Z,101353.83
2019-03-25T12:06:06.211Z,101358.51
2019-03-25T12:08:34.646Z,101368.87
2019-03-25T12:11:02.854Z,101368.96
2019-03-25T12:13:31.052Z,101374.13
2019-03-25T12:15:59.241Z,101379.53
2019-03-25T12:18:27.444Z,101388.61
2019-03-25T12:20:55.643Z,101388.61
2019-03-25T12:23:26.494Z,101406.09
2019-03-25T12:25:53.779Z,101402.92
2019-03-25T12:28:21.973Z,101408.27
2019-03-25T12:30:51.236Z,101412.80
2019-03-25T12:33:19.605Z,101409.39
2019-03-25T12:35:47.815Z,101406.81
2019-03-25T12:38:16.020Z,101410.45
2019-03-25T12:40:44.322Z,101410.45
2019-03-25T12:43:12.520Z,101419.25
2019-03-25T12:45:41.453Z,101418.44
2019-03-25T12:48:11.296Z,101427.16
2019-03-25T12:50:39.499Z,101437.91
2019-03-25T12:53:09.187Z,101437.91
2019-03-25T12:55:37.383Z,101440.00
2019-03-25T12:58:07.402Z,101438.20
2019-03-25T13:00:36.957Z,101454.58
2019-03-25T13:03:05.613Z,101457.38
2019-03-25T13:05:33.810Z,101466.45
2019-03-25T13:08:02.032Z,101469.55
2019-03-25T13:10:30.697Z,101469.55
2019-03-25T13:12:58.894Z,101471.42
2019-03-25T13:15:27.098Z,101484.34
2019-03-25T13:17:56.400Z,101481.70
2019-03-25T13:20:24.633Z,101494.75
2019-03-25T13:22:53.296Z,101495.30
2019-03-25T13:25:21.514Z,101503.91
2019-03-25T13:27:49.712Z,101516.73
2019-03-25T13:30:17.911Z,101514.01
2019-03-25T13:32:47.068Z,101525.53
2019-03-25T13:35:15.265Z,101532.34
2019-03-25T13:37:43.463Z,101536.65
2019-03-25T13:40:11.660Z,101531.87
2019-03-25T13:42:39.884Z,101533.59
2019-03-25T13:45:08.903Z,101547.38
2019-03-25T13:47:38.109Z,101554.34
2019-03-25T13:50:06.784Z,101557.12
2019-03-25T13:52:34.981Z,101560.50
2019-03-25T13:55:03.363Z,101572.80
2019-03-25T13:57:31.568Z,101565.78
2019-03-25T14:00:03.702Z,101572.24
2019-03-25T14:02:30.082Z,101567.38
2019-03-25T14:04:58.667Z,101570.16
2019-03-25T14:07:26.863Z,101570.68
2019-03-25T14:09:56.650Z,101571.95
2019-03-25T14:12:25.370Z,101579.13
2019-03-25T14:14:53.607Z,101580.26
2019-03-25T14:17:22.086Z,101580.26
2019-03-25T14:19:50.670Z,101592.56
2019-03-25T14:22:18.874Z,101592.56
2019-03-25T14:24:47.090Z,101595.09
2019-03-25T14:27:15.494Z,101615.48
2019-03-25T14:29:44.077Z,101620.07
2019-03-25T14:32:12.478Z,101607.67
2019-03-25T14:34:44.943Z,101628.38
2019-03-25T14:37:10.965Z,101630.73
2019-03-25T14:39:39.225Z,101643.13
2019-03-25T14:42:07.518Z,101645.23
2019-03-25T14:44:37.120Z,101640.64
2019-03-25T14:47:05.318Z,101648.36
2019-03-25T14:49:33.889Z,101669.71
2019-03-25T14:52:02.607Z,101669.71
2019-03-25T14:54:30.852Z,101670.55
2019-03-25T14:56:59.323Z,101670.33
2019-03-25T14:59:27.816Z,101670.33
2019-03-25T15:01:56.279Z,101668.56
2019-03-25T15:04:24.773Z,101689.79
2019-03-25T15:06:52.978Z,101700.35
2019-03-25T15:09:21.216Z,101700.35
2019-03-25T15:11:49.707Z,101706.68
2019-03-25T15:14:17.907Z,101707.91
2019-03-25T15:16:46.120Z,101724.19
2019-03-25T15:19:14.308Z,101741.59
2019-03-25T15:21:42.509Z,101741.59
2019-03-25T15:24:13.746Z,101748.28
2019-03-25T15:26:42.134Z,101769.02
2019-03-25T15:29:10.844Z,101785.33
2019-03-25T15:31:39.112Z,101789.16
2019-03-25T15:34:07.315Z,101783.05
2019-03-25T15:36:35.543Z,101790.88
2019-03-25T15:39:06.693Z,101800.72
2019-03-25T15:41:35.077Z,101800.98
2019-03-25T15:44:03.569Z,101804.53
2019-03-25T15:46:32.011Z,101813.36
2019-03-25T15:49:00.513Z,101814.36
2019-03-25T15:51:30.357Z,101819.20
2019-03-25T15:53:58.565Z,101822.30
2019-03-25T15:56:28.133Z,101828.12
2019-03-25T15:58:56.480Z,101818.33
2019-03-25T16:01:24.959Z,101835.20
2019-03-25T16:03:53.172Z,101843.15
2019-03-25T16:06:22.464Z,101835.10
2019-03-25T16:08:50.926Z,101848.25
2019-03-25T16:11:19.398Z,101851.24
2019-03-25T16:13:47.667Z,101859.81
2019-03-25T16:16:15.868Z,101858.45
2019-03-25T16:18:45.358Z,101881.64
2019-03-25T16:21:13.827Z,101878.27
2019-03-25T16:23:42.975Z,101882.34
2019-03-25T16:26:11.329Z,101889.71
2019-03-25T16:28:39.815Z,101900.38
2019-03-25T16:31:10.495Z,101903.72
2019-03-25T16:33:40.003Z,101904.34
2019-03-25T16:36:09.311Z,101890.58
2019-03-25T16:38:39.497Z,101912.46
2019-03-25T16:41:07.826Z,101927.48
2019-03-25T16:43:36.336Z,101919.91
2019-03-25T16:46:04.816Z,101938.90
2019-03-25T16:48:33.291Z,101935.42
2019-03-25T16:51:01.751Z,101934.75
2019-03-25T16:53:30.254Z,101942.81
2019-03-25T16:55:58.709Z,101939.58
2019-03-25T16:58:27.194Z,101955.41
2019-03-25T17:00:55.681Z,101960.13
2019-03-25T17:03:25.073Z,101967.19
2019-03-25T17:05:53.675Z,101968.99
2019-03-25T17:08:22.144Z,101976.15
2019-03-25T17:10:50.638Z,101970.64
2019-03-25T17:13:19.731Z,101976.14
2019-03-25T17:15:49.138Z,101976.14
2019-03-25T17:18:17.613Z,101980.78
2019-03-25T17:20:47.089Z,101987.95
2019-03-25T17:23:15.596Z,101986.81
2019-03-25T17:25:52.727Z,102001.75
2019-03-25T17:28:14.115Z,102027.39
2019-03-25T17:30:43.236Z,102027.39
2019-03-25T17:33:11.572Z,102029.97
2019-03-25T17:35:41.008Z,102032.89
2019-03-25T17:38:09.572Z,102034.59
2019-03-25T17:40:38.033Z,102036.89
2019-03-25T17:43:06.524Z,102042.27
2019-03-25T17:45:35.025Z,102047.94
2019-03-25T17:48:03.489Z,102050.89
2019-03-25T17:50:31.980Z,102042.77
2019-03-25T17:53:00.441Z,102052.75
2019-03-25T17:55:28.926Z,102061.70
2019-03-25T17:57:58.434Z,102061.70
2019-03-25T18:00:35.816Z,102052.95
2019-03-25T18:03:11.069Z,102052.95
2019-03-25T18:05:35.237Z,102072.34
2019-03-25T18:08:03.627Z,102072.53
2019-03-25T18:10:32.097Z,102073.89
2019-03-25T18:13:01.581Z,102074.66
2019-03-25T18:15:30.082Z,102078.19
2019-03-25T18:17:58.592Z,102080.69
2019-03-25T18:20:27.254Z,102080.69
2019-03-25T18:22:55.566Z,102093.45
2019-03-25T18:25:23.980Z,102093.45
2019-03-25T18:27:53.027Z,102094.45
2019-03-25T18:30:32.061Z,102098.31
2019-03-25T18:33:00.273Z,102096.97
2019-03-25T18:35:28.933Z,102107.83
2019-03-25T18:37:58.074Z,102105.03
2019-03-25T18:40:26.678Z,102115.69
2019-03-25T18:42:55.162Z,102118.11
2019-03-25T18:45:24.237Z,102116.25
2019-03-25T18:47:53.430Z,102116.45
2019-03-25T18:50:22.902Z,102120.05
2019-03-25T18:52:51.143Z,102127.59
2019-03-25T18:55:20.638Z,102132.05
2019-03-25T18:57:49.383Z,102131.47
2019-03-25T19:00:32.348Z,102139.20
2019-03-25T19:03:01.121Z,102139.20
2019-03-25T19:05:29.409Z,102145.95
2019-03-25T19:07:57.631Z,102150.12
2019-03-25T19:10:29.117Z,102149.05
2019-03-25T19:12:58.477Z,102149.20
2019-03-25T19:15:26.927Z,102157.11
2019-03-25T19:17:55.965Z,102157.68
2019-03-25T19:20:24.430Z,102158.11
2019-03-25T19:22:52.623Z,102158.20
2019-03-25T19:25:20.906Z,102164.94
2019-03-25T19:27:49.354Z,102168.17
2019-03-25T19:30:17.820Z,102162.33
2019-03-25T19:32:47.915Z,102162.66
2019-03-25T19:35:17.074Z,102164.27
2019-03-25T19:37:45.327Z,102150.12
2019-03-25T19:40:13.527Z,102165.91
2019-03-25T19:42:41.833Z,102164.16
2019-03-25T19:45:10.264Z,102165.11
2019-03-25T19:47:38.714Z,102165.11
2019-03-25T19:50:07.749Z,102169.25
2019-03-25T19:52:36.175Z,102172.37
2019-03-25T19:55:04.940Z,102171.22
2019-03-25T19:57:33.185Z,102179.70
2019-03-25T20:00:03.200Z,102179.62
2019-03-25T20:02:31.722Z,102174.77
2019-03-25T20:05:00.333Z,102181.89
2019-03-25T20:07:29.366Z,102186.73
2019-03-25T20:10:01.710Z,102192.86
2019-03-25T20:12:29.907Z,102199.98
2019-03-25T20:14:58.248Z,102185.78
2019-03-25T20:17:27.725Z,102196.40
2019-03-25T20:19:56.147Z,102196.63
2019-03-25T20:22:24.341Z,102201.95
2019-03-25T20:24:52.615Z,102209.99
2019-03-25T20:27:20.799Z,102216.69
2019-03-25T20:29:49.086Z,102213.58
2019-03-25T20:32:17.537Z,102218.44
2019-03-25T20:34:46.076Z,102224.33
2019-03-25T20:37:14.519Z,102230.19
2019-03-25T20:39:42.972Z,102234.91
2019-03-25T20:42:12.631Z,102238.62
2019-03-25T20:44:41.935Z,102247.72
2019-03-25T20:47:13.568Z,102250.03
2019-03-25T20:49:42.094Z,102251.70
2019-03-25T20:52:10.520Z,102254.66
2019-03-25T20:54:39.035Z,102261.36
2019-03-25T20:57:07.505Z,102266.34
2019-03-25T20:59:36.019Z,102267.47
2019-03-25T21:02:04.430Z,102262.83
2019-03-25T21:04:32.939Z,102265.19
2019-03-25T21:07:01.584Z,102274.00
2019-03-25T21:09:29.873Z,102266.33
2019-03-25T21:11:58.404Z,102271.81
2019-03-25T21:14:26.886Z,102276.94
2019-03-25T21:16:55.322Z,102283.61
2019-03-25T21:19:24.044Z,102279.47
2019-03-25T21:21:52.273Z,102280.78
2019-03-25T21:24:20.768Z,102277.20
2019-03-25T21:26:49.238Z,102280.00
2019-03-25T21:29:17.782Z,102278.07
2019-03-25T21:31:46.265Z,102276.92
2019-03-25T21:34:14.697Z,102275.56
2019-03-25T21:36:43.483Z,102267.11
2019-03-25T21:39:12.646Z,102275.17
2019-03-25T21:41:40.875Z,102283.20
2019-03-25T21:44:09.112Z,102281.31
2019-03-25T21:46:37.697Z,102292.93
2019-03-25T21:49:06.113Z,102293.02
2019-03-25T21:51:34.849Z,102293.89
2019-03-25T21:54:03.113Z,102289.25
2019-03-25T21:56:31.630Z,102281.28
2019-03-25T21:59:00.542Z,102280.98
2019-03-25T22:01:29.075Z,102278.52
2019-03-25T22:03:57.480Z,102280.26
2019-03-25T22:06:25.968Z,102275.61
2019-03-25T22:08:54.438Z,102277.39
2019-03-25T22:11:22.932Z,102280.98
2019-03-25T22:13:53.229Z,102274.92
2019-03-25T22:16:21.442Z,102281.59
2019-03-25T22:18:49.901Z,102279.02
2019-03-25T22:21:18.502Z,102285.12
2019-03-25T22:23:46.674Z,102289.19
2019-03-25T22:26:14.887Z,102291.69
2019-03-25T22:28:43.316Z,102286.92
2019-03-25T22:31:11.804Z,102282.61
2019-03-25T22:33:40.296Z,102284.75
2019-03-25T22:36:08.850Z,102288.28
2019-03-25T22:38:37.669Z,102287.71
2019-03-25T22:41:06.272Z,102288.03
2019-03-25T22:43:34.732Z,102290.56
2019-03-25T22:46:03.214Z,102279.98
2019-03-25T22:48:31.694Z,102282.48
2019-03-25T22:51:00.162Z,102283.98
2019-03-25T22:53:28.659Z,102279.70
2019-03-25T22:55:57.128Z,102281.93
2019-03-25T22:58:25.620Z,102286.58
2019-03-25T23:00:54.090Z,102295.03
2019-03-25T23:03:22.640Z,102297.34
2019-03-25T23:05:51.054Z,102295.86
2019-03-25T23:08:19.540Z,102297.53
2019-03-25T23:10:48.011Z,102300.06
2019-03-25T23:13:16.219Z,102296.87
2019-03-25T23:15:44.422Z,102303.03
2019-03-25T23:18:12.960Z,102301.23
2019-03-25T23:20:41.424Z,102297.32
2019-03-25T23:23:09.915Z,102286.38
2019-03-25T23:25:38.389Z,102300.31
2019-03-25T23:28:06.888Z,102307.13
2019-03-25T23:30:35.344Z,102307.47
2019-03-25T23:33:03.833Z,102307.59
2019-03-25T23:35:32.325Z,102305.84
2019-03-25T23:38:00.791Z,102309.25
2019-03-25T23:40:29.292Z,102308.77
2019-03-25T23:42:59.478Z,102314.20
2019-03-25T23:45:27.803Z,102322.34
2019-03-25T23:47:56.274Z,102332.81
2019-03-25T23:50:24.481Z,102338.94
2019-03-25T23:52:52.779Z,102321.72
2019-03-25T23:55:21.200Z,102322.11
2019-03-25T23:57:49.661Z,102319.12
